PWSweather.com
Personal Weather Stations
Station Observations
SELKIRK1
Ontario, Selkirk, ON N0A 1P0

OntarioSelkirk, ON N0A 1P0

Lat: 42.8083652, Lon: -79.94971040000001

Elevation: 583

Station Type: Acurite 5 in 1

http://gavinsurf.com

High Low Average
Temperature 68.0°F20.0°C 61.7°F16.5°C 64.9°F18.3°C
Dew Point 67.7°F19.8°C 61.4°F16.3°C 64.6°F18.1°C
Winds 5.8 mph 9.3 kmh Calm Calm 1.0 mph E1.6 kmh E
Wind Gusts 6.9 mph11.1 kmh -- 2.0 mph3.2 kmh
Humidity 99% 96% 99%
Pressure 31.86 in1078.9 mb 31.86 in1078.9 mb -
Precipitation 0.79 in20.1 mm - -
Hour Temp Dew Point Humidity Winds Wind Gusts Pressure Precip Precip Rate Daily Precip Total
12:00 AM 63.5°F17.5°C 63.2°F17.3°C 99% Calm Calm -- 31.86 in1078.9 mb - 0.00 in0.0 mm 0.00 in0.0 mm
12:10 AM 63.2°F17.3°C 62.9°F17.2°C 99% Calm Calm -- 31.86 in1078.9 mb - 0.00 in0.0 mm 0.00 in0.0 mm
12:15 AM 63.0°F17.2°C 62.7°F17.1°C 99% 2.3 mph NNE3.7 kmh NNE 2.3 mph3.7 kmh 31.86 in1078.9 mb - 0.00 in0.0 mm 0.00 in0.0 mm
12:20 AM 63.0°F17.2°C 62.7°F17.1°C 99% Calm Calm -- 31.86 in1078.9 mb - 0.00 in0.0 mm 0.00 in0.0 mm
12:25 AM 63.0°F17.2°C 62.7°F17.1°C 99% Calm Calm -- 31.86 in1078.9 mb - 0.00 in0.0 mm 0.00 in0.0 mm
12:30 AM 63.0°F17.2°C 62.7°F17.1°C 99% 2.3 mph NNE3.7 kmh NNE 3.5 mph5.6 kmh 31.86 in1078.9 mb - 0.00 in0.0 mm 0.00 in0.0 mm
12:35 AM 63.2°F17.3°C 62.9°F17.2°C 99% 2.3 mph NE3.7 kmh NE 2.3 mph3.7 kmh 31.86 in1078.9 mb - 0.00 in0.0 mm 0.00 in0.0 mm
12:40 AM 63.2°F17.3°C 62.9°F17.2°C 99% Calm Calm -- 31.86 in1078.9 mb - 0.00 in0.0 mm 0.00 in0.0 mm
12:45 AM 63.3°F17.4°C 63.0°F17.2°C 99% Calm Calm -- 31.86 in1078.9 mb - 0.00 in0.0 mm 0.00 in0.0 mm
12:50 AM 63.3°F17.4°C 63.0°F17.2°C 99% Calm Calm -- 31.86 in1078.9 mb - 0.00 in0.0 mm 0.00 in0.0 mm
12:55 AM 63.3°F17.4°C 63.0°F17.2°C 99% Calm Calm -- 31.86 in1078.9 mb - 0.00 in0.0 mm 0.00 in0.0 mm
01:00 AM 63.5°F17.5°C 63.2°F17.3°C 99% Calm Calm -- 31.86 in1078.9 mb - 0.00 in0.0 mm 0.00 in0.0 mm
01:10 AM 63.5°F17.5°C 63.2°F17.3°C 99% Calm Calm -- 31.86 in1078.9 mb - 0.00 in0.0 mm 0.00 in0.0 mm
01:15 AM 63.5°F17.5°C 63.2°F17.3°C 99% Calm Calm -- 31.86 in1078.9 mb - 0.00 in0.0 mm 0.00 in0.0 mm
01:20 AM 63.5°F17.5°C 63.2°F17.3°C 99% Calm Calm 1.2 mph1.9 kmh 31.86 in1078.9 mb - 0.00 in0.0 mm 0.00 in0.0 mm
01:25 AM 63.5°F17.5°C 63.2°F17.3°C 99% Calm Calm -- 31.86 in1078.9 mb - 0.00 in0.0 mm 0.00 in0.0 mm
01:30 AM 63.5°F17.5°C 63.2°F17.3°C 99% 1.2 mph NE1.9 kmh NE 2.3 mph3.7 kmh 31.86 in1078.9 mb - 0.00 in0.0 mm 0.00 in0.0 mm
01:35 AM 63.7°F17.6°C 63.4°F17.4°C 99% 1.2 mph N1.9 kmh N 1.2 mph1.9 kmh 31.86 in1078.9 mb - 0.00 in0.0 mm 0.00 in0.0 mm
01:40 AM 63.7°F17.6°C 63.4°F17.4°C 99% Calm Calm -- 31.86 in1078.9 mb - 0.00 in0.0 mm 0.00 in0.0 mm
01:45 AM 63.7°F17.6°C 63.4°F17.4°C 99% Calm Calm 1.2 mph1.9 kmh 31.86 in1078.9 mb - 0.00 in0.0 mm 0.00 in0.0 mm
01:50 AM 63.7°F17.6°C 63.4°F17.4°C 99% 1.2 mph NNE1.9 kmh NNE 2.3 mph3.7 kmh 31.86 in1078.9 mb - 0.00 in0.0 mm 0.00 in0.0 mm
01:55 AM 63.7°F17.6°C 63.4°F17.4°C 99% 1.2 mph NNE1.9 kmh NNE 1.2 mph1.9 kmh 31.86 in1078.9 mb - 0.00 in0.0 mm 0.00 in0.0 mm
02:00 AM 63.7°F17.6°C 63.4°F17.4°C 99% Calm Calm -- 31.86 in1078.9 mb - 0.00 in0.0 mm 0.00 in0.0 mm
02:10 AM 63.5°F17.5°C 63.2°F17.3°C 99% Calm Calm -- 31.86 in1078.9 mb - 0.00 in0.0 mm 0.00 in0.0 mm
02:15 AM 63.5°F17.5°C 63.2°F17.3°C 99% Calm Calm -- 31.86 in1078.9 mb - 0.00 in0.0 mm 0.00 in0.0 mm
02:20 AM 63.3°F17.4°C 63.0°F17.2°C 99% Calm Calm -- 31.86 in1078.9 mb - 0.00 in0.0 mm 0.00 in0.0 mm
02:25 AM 63.5°F17.5°C 63.2°F17.3°C 99% Calm Calm -- 31.86 in1078.9 mb - 0.00 in0.0 mm 0.00 in0.0 mm
02:30 AM 63.7°F17.6°C 63.4°F17.4°C 99% Calm Calm -- 31.86 in1078.9 mb - 0.00 in0.0 mm 0.00 in0.0 mm
02:35 AM 63.7°F17.6°C 63.4°F17.4°C 99% Calm Calm -- 31.86 in1078.9 mb - 0.00 in0.0 mm 0.00 in0.0 mm
02:40 AM 63.7°F17.6°C 63.4°F17.4°C 99% Calm Calm -- 31.86 in1078.9 mb - 0.00 in0.0 mm 0.00 in0.0 mm
02:45 AM 63.7°F17.6°C 63.4°F17.4°C 99% Calm Calm -- 31.86 in1078.9 mb - 0.00 in0.0 mm 0.00 in0.0 mm
02:50 AM 63.7°F17.6°C 63.4°F17.4°C 99% Calm Calm -- 31.86 in1078.9 mb - 0.00 in0.0 mm 0.00 in0.0 mm
02:55 AM 63.7°F17.6°C 63.4°F17.4°C 99% Calm Calm -- 31.86 in1078.9 mb - 0.00 in0.0 mm 0.00 in0.0 mm
03:00 AM 63.8°F17.7°C 63.5°F17.5°C 99% Calm Calm -- 31.86 in1078.9 mb - 0.00 in0.0 mm 0.00 in0.0 mm
03:10 AM 64.1°F17.8°C 63.8°F17.7°C 99% Calm Calm -- 31.86 in1078.9 mb - 0.00 in0.0 mm 0.00 in0.0 mm
03:15 AM 64.1°F17.8°C 63.8°F17.7°C 99% Calm Calm -- 31.86 in1078.9 mb - 0.00 in0.0 mm 0.00 in0.0 mm
03:20 AM 64.1°F17.8°C 63.8°F17.7°C 99% Calm Calm -- 31.86 in1078.9 mb - 0.00 in0.0 mm 0.00 in0.0 mm
03:25 AM 64.1°F17.8°C 63.8°F17.7°C 99% Calm Calm -- 31.86 in1078.9 mb - 0.00 in0.0 mm 0.00 in0.0 mm
03:30 AM 64.1°F17.8°C 63.8°F17.7°C 99% Calm Calm -- 31.86 in1078.9 mb - 0.00 in0.0 mm 0.00 in0.0 mm
03:35 AM 64.2°F17.9°C 63.9°F17.7°C 99% Calm Calm -- 31.86 in1078.9 mb - 0.00 in0.0 mm 0.00 in0.0 mm
03:40 AM 64.2°F17.9°C 63.9°F17.7°C 99% Calm Calm -- 31.86 in1078.9 mb - 0.00 in0.0 mm 0.00 in0.0 mm
03:45 AM 64.2°F17.9°C 63.9°F17.7°C 99% Calm Calm -- 31.86 in1078.9 mb - 0.00 in0.0 mm 0.00 in0.0 mm
03:50 AM 64.2°F17.9°C 63.9°F17.7°C 99% Calm Calm -- 31.86 in1078.9 mb - 0.00 in0.0 mm 0.00 in0.0 mm
03:55 AM 64.2°F17.9°C 63.9°F17.7°C 99% Calm Calm -- 31.86 in1078.9 mb - 0.00 in0.0 mm 0.00 in0.0 mm
04:00 AM 64.2°F17.9°C 63.9°F17.7°C 99% 1.2 mph NNE1.9 kmh NNE 1.2 mph1.9 kmh 31.86 in1078.9 mb - 0.00 in0.0 mm 0.00 in0.0 mm
04:10 AM 64.4°F18.0°C 64.1°F17.8°C 99% Calm Calm -- 31.86 in1078.9 mb - 0.00 in0.0 mm 0.00 in0.0 mm
04:15 AM 64.4°F18.0°C 64.1°F17.8°C 99% Calm Calm -- 31.86 in1078.9 mb - 0.00 in0.0 mm 0.00 in0.0 mm
04:20 AM 64.4°F18.0°C 64.1°F17.8°C 99% Calm Calm -- 31.86 in1078.9 mb - 0.00 in0.0 mm 0.00 in0.0 mm
04:25 AM 64.4°F18.0°C 64.1°F17.8°C 99% Calm Calm -- 31.86 in1078.9 mb - 0.00 in0.0 mm 0.00 in0.0 mm
04:30 AM 64.4°F18.0°C 64.1°F17.8°C 99% Calm Calm -- 31.86 in1078.9 mb - 0.00 in0.0 mm 0.00 in0.0 mm
04:35 AM 64.4°F18.0°C 64.1°F17.8°C 99% Calm Calm -- 31.86 in1078.9 mb - 0.00 in0.0 mm 0.00 in0.0 mm
04:40 AM 64.2°F17.9°C 63.9°F17.7°C 99% Calm Calm -- 31.86 in1078.9 mb - 0.00 in0.0 mm 0.00 in0.0 mm
04:45 AM 64.2°F17.9°C 63.9°F17.7°C 99% Calm Calm -- 31.86 in1078.9 mb - 0.00 in0.0 mm 0.00 in0.0 mm
04:50 AM 64.2°F17.9°C 63.9°F17.7°C 99% Calm Calm -- 31.86 in1078.9 mb - 0.00 in0.0 mm 0.00 in0.0 mm
04:55 AM 64.2°F17.9°C 63.9°F17.7°C 99% Calm Calm -- 31.86 in1078.9 mb - 0.00 in0.0 mm 0.00 in0.0 mm
05:00 AM 64.2°F17.9°C 63.9°F17.7°C 99% Calm Calm 1.2 mph1.9 kmh 31.86 in1078.9 mb - 0.00 in0.0 mm 0.00 in0.0 mm
05:10 AM 64.2°F17.9°C 63.9°F17.7°C 99% 1.2 mph NNE1.9 kmh NNE 2.3 mph3.7 kmh 31.86 in1078.9 mb - 0.00 in0.0 mm 0.00 in0.0 mm
05:15 AM 64.2°F17.9°C 63.9°F17.7°C 99% 2.3 mph NNE3.7 kmh NNE 2.3 mph3.7 kmh 31.86 in1078.9 mb - 0.00 in0.0 mm 0.00 in0.0 mm
05:20 AM 64.2°F17.9°C 63.9°F17.7°C 99% Calm Calm -- 31.86 in1078.9 mb - 0.00 in0.0 mm 0.00 in0.0 mm
05:25 AM 64.2°F17.9°C 63.9°F17.7°C 99% Calm Calm -- 31.86 in1078.9 mb - 0.00 in0.0 mm 0.00 in0.0 mm
05:30 AM 64.2°F17.9°C 63.9°F17.7°C 99% Calm Calm -- 31.86 in1078.9 mb - 0.00 in0.0 mm 0.00 in0.0 mm
05:35 AM 64.2°F17.9°C 63.9°F17.7°C 99% Calm Calm 1.2 mph1.9 kmh 31.86 in1078.9 mb - 0.00 in0.0 mm 0.00 in0.0 mm
05:40 AM 64.2°F17.9°C 63.9°F17.7°C 99% Calm Calm 1.2 mph1.9 kmh 31.86 in1078.9 mb - 0.00 in0.0 mm 0.00 in0.0 mm
05:45 AM 64.2°F17.9°C 63.9°F17.7°C 99% Calm Calm 1.2 mph1.9 kmh 31.86 in1078.9 mb - 0.04 in1.0 mm 0.04 in1.0 mm
05:50 AM 64.2°F17.9°C 63.9°F17.7°C 99% 1.2 mph NNE1.9 kmh NNE 1.2 mph1.9 kmh 31.86 in1078.9 mb - 0.12 in3.0 mm 0.12 in3.0 mm
05:55 AM 64.2°F17.9°C 63.9°F17.7°C 99% Calm Calm -- 31.86 in1078.9 mb - 0.26 in6.6 mm 0.26 in6.6 mm
06:00 AM 64.1°F17.8°C 63.8°F17.7°C 99% 2.3 mph N3.7 kmh N 4.6 mph7.4 kmh 31.86 in1078.9 mb - 0.36 in9.1 mm 0.36 in9.1 mm
06:10 AM 64.1°F17.8°C 63.8°F17.7°C 99% 4.6 mph N7.4 kmh N 5.8 mph9.3 kmh 31.86 in1078.9 mb - 0.36 in9.1 mm 0.36 in9.1 mm
06:15 AM 64.1°F17.8°C 63.8°F17.7°C 99% 2.3 mph N3.7 kmh N 1.2 mph1.9 kmh 31.86 in1078.9 mb - 0.36 in9.1 mm 0.36 in9.1 mm
06:20 AM 64.1°F17.8°C 63.8°F17.7°C 99% 1.2 mph NNE1.9 kmh NNE 1.2 mph1.9 kmh 31.86 in1078.9 mb - 0.36 in9.1 mm 0.36 in9.1 mm
06:25 AM 64.1°F17.8°C 63.8°F17.7°C 99% Calm Calm -- 31.86 in1078.9 mb - 0.37 in9.4 mm 0.37 in9.4 mm
06:30 AM 64.1°F17.8°C 63.8°F17.7°C 99% Calm Calm 1.2 mph1.9 kmh 31.86 in1078.9 mb - 0.38 in9.7 mm 0.38 in9.7 mm
06:35 AM 64.1°F17.8°C 63.8°F17.7°C 99% Calm Calm 1.2 mph1.9 kmh 31.86 in1078.9 mb - 0.39 in9.9 mm 0.39 in9.9 mm
06:40 AM 64.1°F17.8°C 63.8°F17.7°C 99% Calm Calm 1.2 mph1.9 kmh 31.86 in1078.9 mb - 0.39 in9.9 mm 0.39 in9.9 mm
06:45 AM 64.1°F17.8°C 63.8°F17.7°C 99% Calm Calm -- 31.86 in1078.9 mb - 0.38 in9.7 mm 0.40 in10.2 mm
06:50 AM 64.1°F17.8°C 63.8°F17.7°C 99% Calm Calm -- 31.86 in1078.9 mb - 0.30 in7.6 mm 0.40 in10.2 mm
06:55 AM 64.2°F17.9°C 63.9°F17.7°C 99% Calm Calm -- 31.86 in1078.9 mb - 0.24 in6.1 mm 0.40 in10.2 mm
07:00 AM 64.2°F17.9°C 63.9°F17.7°C 99% Calm Calm -- 31.86 in1078.9 mb - 0.04 in1.0 mm 0.40 in10.2 mm
07:10 AM 64.4°F18.0°C 64.1°F17.8°C 99% Calm Calm -- 31.86 in1078.9 mb - 0.04 in1.0 mm 0.40 in10.2 mm
07:15 AM 64.8°F18.2°C 64.5°F18.1°C 99% Calm Calm 1.2 mph1.9 kmh 31.86 in1078.9 mb - 0.04 in1.0 mm 0.40 in10.2 mm
07:20 AM 65.0°F18.3°C 64.7°F18.2°C 99% Calm Calm -- 31.86 in1078.9 mb - 0.05 in1.3 mm 0.41 in10.4 mm
07:25 AM 65.0°F18.3°C 64.8°F18.2°C 99% Calm Calm -- 31.86 in1078.9 mb - 0.04 in1.0 mm 0.41 in10.4 mm
07:30 AM 65.1°F18.4°C 64.8°F18.2°C 99% Calm Calm -- 31.86 in1078.9 mb - 0.03 in0.8 mm 0.41 in10.4 mm
07:35 AM 65.1°F18.4°C 64.8°F18.2°C 99% Calm Calm -- 31.86 in1078.9 mb - 0.02 in0.5 mm 0.41 in10.4 mm
07:40 AM 65.1°F18.4°C 64.8°F18.2°C 99% Calm Calm -- 31.86 in1078.9 mb - 0.02 in0.5 mm 0.41 in10.4 mm
07:45 AM 65.5°F18.6°C 65.2°F18.4°C 99% Calm Calm -- 31.86 in1078.9 mb - 0.01 in0.3 mm 0.41 in10.4 mm
07:50 AM 65.7°F18.7°C 65.4°F18.6°C 99% Calm Calm 2.3 mph3.7 kmh 31.86 in1078.9 mb - 0.01 in0.3 mm 0.41 in10.4 mm
07:55 AM 65.9°F18.8°C 65.6°F18.7°C 99% Calm Calm -- 31.86 in1078.9 mb - 0.01 in0.3 mm 0.41 in10.4 mm
08:00 AM 65.9°F18.8°C 65.6°F18.7°C 99% Calm Calm -- 31.86 in1078.9 mb - 0.01 in0.3 mm 0.41 in10.4 mm
08:10 AM 66.2°F19.0°C 65.9°F18.8°C 99% 1.2 mph NNE1.9 kmh NNE 1.2 mph1.9 kmh 31.86 in1078.9 mb - 0.01 in0.3 mm 0.41 in10.4 mm
08:15 AM 66.2°F19.0°C 65.9°F18.8°C 99% 2.3 mph NE3.7 kmh NE 2.3 mph3.7 kmh 31.86 in1078.9 mb - 0.01 in0.3 mm 0.41 in10.4 mm
08:20 AM 66.0°F18.9°C 65.7°F18.7°C 99% 1.2 mph NNE1.9 kmh NNE 1.2 mph1.9 kmh 31.86 in1078.9 mb - 0.00 in0.0 mm 0.41 in10.4 mm
08:25 AM 66.6°F19.2°C 66.3°F19.1°C 99% 1.2 mph NNE1.9 kmh NNE 2.3 mph3.7 kmh 31.86 in1078.9 mb - 0.00 in0.0 mm 0.41 in10.4 mm
08:30 AM 66.1°F18.9°C 65.8°F18.8°C 99% 1.2 mph NE1.9 kmh NE 1.2 mph1.9 kmh 31.86 in1078.9 mb - 0.00 in0.0 mm 0.41 in10.4 mm
08:35 AM 66.2°F19.0°C 65.9°F18.8°C 99% 2.3 mph NNE3.7 kmh NNE 2.3 mph3.7 kmh 31.86 in1078.9 mb - 0.00 in0.0 mm 0.41 in10.4 mm
08:40 AM 65.9°F18.8°C 65.6°F18.7°C 99% 2.3 mph ESE3.7 kmh ESE 2.3 mph3.7 kmh 31.86 in1078.9 mb - 0.00 in0.0 mm 0.41 in10.4 mm
08:45 AM 66.0°F18.9°C 65.7°F18.7°C 99% Calm Calm 2.3 mph3.7 kmh 31.86 in1078.9 mb - 0.00 in0.0 mm 0.41 in10.4 mm
08:50 AM 66.0°F18.9°C 65.7°F18.7°C 99% 1.2 mph SE1.9 kmh SE 2.3 mph3.7 kmh 31.86 in1078.9 mb - 0.00 in0.0 mm 0.41 in10.4 mm
08:55 AM 66.0°F18.9°C 65.7°F18.7°C 99% 1.2 mph ESE1.9 kmh ESE 1.2 mph1.9 kmh 31.86 in1078.9 mb - 0.00 in0.0 mm 0.41 in10.4 mm
09:00 AM 66.0°F18.9°C 65.7°F18.7°C 99% 1.2 mph ESE1.9 kmh ESE 1.2 mph1.9 kmh 31.86 in1078.9 mb - 0.00 in0.0 mm 0.41 in10.4 mm
09:10 AM 66.1°F18.9°C 65.8°F18.8°C 99% 1.2 mph SE1.9 kmh SE 1.2 mph1.9 kmh 31.86 in1078.9 mb - 0.00 in0.0 mm 0.41 in10.4 mm
09:15 AM 66.0°F18.9°C 65.7°F18.7°C 99% 1.2 mph ESE1.9 kmh ESE 1.2 mph1.9 kmh 31.86 in1078.9 mb - 0.00 in0.0 mm 0.41 in10.4 mm
09:20 AM 66.0°F18.9°C 65.7°F18.7°C 99% 1.2 mph SE1.9 kmh SE -- 31.86 in1078.9 mb - 0.00 in0.0 mm 0.41 in10.4 mm
09:25 AM 66.4°F19.1°C 66.1°F18.9°C 99% Calm Calm 2.3 mph3.7 kmh 31.86 in1078.9 mb - 0.00 in0.0 mm 0.41 in10.4 mm
09:30 AM 66.2°F19.0°C 65.9°F18.8°C 99% Calm Calm 1.2 mph1.9 kmh 31.86 in1078.9 mb - 0.00 in0.0 mm 0.41 in10.4 mm
09:40 AM 66.7°F19.3°C 66.4°F19.1°C 99% Calm Calm -- 31.86 in1078.9 mb - 0.00 in0.0 mm 0.41 in10.4 mm
09:45 AM 66.9°F19.4°C 66.6°F19.2°C 99% Calm Calm 2.3 mph3.7 kmh 31.86 in1078.9 mb - 0.00 in0.0 mm 0.41 in10.4 mm
09:50 AM 66.8°F19.3°C 66.5°F19.2°C 99% 1.2 mph ESE1.9 kmh ESE 2.3 mph3.7 kmh 31.86 in1078.9 mb - 0.00 in0.0 mm 0.41 in10.4 mm
09:55 AM 66.6°F19.2°C 66.3°F19.1°C 99% 2.3 mph SE3.7 kmh SE 2.3 mph3.7 kmh 31.86 in1078.9 mb - 0.00 in0.0 mm 0.41 in10.4 mm
10:10 AM 66.6°F19.2°C 66.3°F19.1°C 99% Calm Calm -- 31.86 in1078.9 mb - 0.00 in0.0 mm 0.41 in10.4 mm
10:15 AM 66.8°F19.3°C 66.5°F19.2°C 99% Calm Calm 1.2 mph1.9 kmh 31.86 in1078.9 mb - 0.00 in0.0 mm 0.41 in10.4 mm
10:20 AM 67.0°F19.4°C 66.7°F19.3°C 99% 1.2 mph ESE1.9 kmh ESE 2.3 mph3.7 kmh 31.86 in1078.9 mb - 0.00 in0.0 mm 0.41 in10.4 mm
10:25 AM 67.7°F19.8°C 67.5°F19.7°C 99% Calm Calm -- 31.86 in1078.9 mb - 0.00 in0.0 mm 0.41 in10.4 mm
10:30 AM 68.0°F20.0°C 67.7°F19.8°C 99% 1.2 mph ESE1.9 kmh ESE 2.3 mph3.7 kmh 31.86 in1078.9 mb - 0.00 in0.0 mm 0.41 in10.4 mm
10:35 AM 67.8°F19.9°C 67.5°F19.7°C 99% 2.3 mph E3.7 kmh E 2.3 mph3.7 kmh 31.86 in1078.9 mb - 0.00 in0.0 mm 0.41 in10.4 mm
10:40 AM 67.5°F19.7°C 67.2°F19.6°C 99% 2.3 mph E3.7 kmh E 3.5 mph5.6 kmh 31.86 in1078.9 mb - 0.00 in0.0 mm 0.41 in10.4 mm
10:45 AM 67.4°F19.7°C 67.1°F19.5°C 99% 2.3 mph ENE3.7 kmh ENE 4.6 mph7.4 kmh 31.86 in1078.9 mb - 0.00 in0.0 mm 0.41 in10.4 mm
10:50 AM 66.8°F19.3°C 66.5°F19.2°C 99% 2.3 mph NE3.7 kmh NE 5.8 mph9.3 kmh 31.86 in1078.9 mb - 0.00 in0.0 mm 0.41 in10.4 mm
10:55 AM 66.2°F19.0°C 65.9°F18.8°C 99% 2.3 mph NE3.7 kmh NE 3.5 mph5.6 kmh 31.86 in1078.9 mb - 0.00 in0.0 mm 0.41 in10.4 mm
11:00 AM 66.1°F18.9°C 65.8°F18.8°C 99% 2.3 mph E3.7 kmh E 4.6 mph7.4 kmh 31.86 in1078.9 mb - 0.00 in0.0 mm 0.41 in10.4 mm
11:10 AM 65.7°F18.7°C 65.4°F18.6°C 99% 2.3 mph ENE3.7 kmh ENE 4.6 mph7.4 kmh 31.86 in1078.9 mb - 0.00 in0.0 mm 0.41 in10.4 mm
11:15 AM 65.6°F18.7°C 65.3°F18.5°C 99% 2.3 mph ENE3.7 kmh ENE 4.6 mph7.4 kmh 31.86 in1078.9 mb - 0.01 in0.3 mm 0.42 in10.7 mm
11:20 AM 65.4°F18.6°C 65.1°F18.4°C 99% 3.5 mph ENE5.6 kmh ENE 4.6 mph7.4 kmh 31.86 in1078.9 mb - 0.01 in0.3 mm 0.42 in10.7 mm
11:25 AM 65.7°F18.7°C 65.4°F18.6°C 99% 2.3 mph E3.7 kmh E 3.5 mph5.6 kmh 31.86 in1078.9 mb - 0.01 in0.3 mm 0.42 in10.7 mm
11:30 AM 65.3°F18.5°C 65.0°F18.3°C 99% 3.5 mph NE5.6 kmh NE 3.5 mph5.6 kmh 31.86 in1078.9 mb - 0.01 in0.3 mm 0.42 in10.7 mm
11:35 AM 65.3°F18.5°C 65.0°F18.3°C 99% 3.5 mph E5.6 kmh E 2.3 mph3.7 kmh 31.86 in1078.9 mb - 0.01 in0.3 mm 0.42 in10.7 mm
11:40 AM 65.6°F18.7°C 65.3°F18.5°C 99% 2.3 mph E3.7 kmh E 4.6 mph7.4 kmh 31.86 in1078.9 mb - 0.01 in0.3 mm 0.42 in10.7 mm
11:45 AM 65.7°F18.7°C 65.4°F18.6°C 99% 2.3 mph ENE3.7 kmh ENE 3.5 mph5.6 kmh 31.86 in1078.9 mb - 0.01 in0.3 mm 0.42 in10.7 mm
11:50 AM 65.7°F18.7°C 65.4°F18.6°C 99% 2.3 mph NE3.7 kmh NE 3.5 mph5.6 kmh 31.86 in1078.9 mb - 0.01 in0.3 mm 0.42 in10.7 mm
11:55 AM 65.5°F18.6°C 65.2°F18.4°C 99% 2.3 mph ENE3.7 kmh ENE 3.5 mph5.6 kmh 31.86 in1078.9 mb - 0.01 in0.3 mm 0.42 in10.7 mm
12:00 PM 65.5°F18.6°C 65.2°F18.4°C 99% 2.3 mph ENE3.7 kmh ENE 3.5 mph5.6 kmh 31.86 in1078.9 mb - 0.01 in0.3 mm 0.42 in10.7 mm
12:10 PM 65.3°F18.5°C 65.0°F18.3°C 99% 3.5 mph NE5.6 kmh NE 4.6 mph7.4 kmh 31.86 in1078.9 mb - 0.01 in0.3 mm 0.42 in10.7 mm
12:15 PM 65.0°F18.3°C 64.7°F18.2°C 99% 3.5 mph E5.6 kmh E 3.5 mph5.6 kmh 31.86 in1078.9 mb - 0.00 in0.0 mm 0.42 in10.7 mm
12:20 PM 65.0°F18.3°C 64.7°F18.2°C 99% 2.3 mph ENE3.7 kmh ENE 2.3 mph3.7 kmh 31.86 in1078.9 mb - 0.00 in0.0 mm 0.42 in10.7 mm
12:25 PM 65.0°F18.3°C 64.7°F18.2°C 99% 2.3 mph ENE3.7 kmh ENE 3.5 mph5.6 kmh 31.86 in1078.9 mb - 0.00 in0.0 mm 0.42 in10.7 mm
12:30 PM 65.0°F18.3°C 64.7°F18.2°C 99% 2.3 mph ENE3.7 kmh ENE 3.5 mph5.6 kmh 31.86 in1078.9 mb - 0.02 in0.5 mm 0.44 in11.2 mm
12:35 PM 64.8°F18.2°C 64.5°F18.1°C 99% 1.2 mph ENE1.9 kmh ENE 2.3 mph3.7 kmh 31.86 in1078.9 mb - 0.08 in2.0 mm 0.50 in12.7 mm
12:40 PM 64.8°F18.2°C 64.5°F18.1°C 99% 2.3 mph E3.7 kmh E 2.3 mph3.7 kmh 31.86 in1078.9 mb - 0.16 in4.1 mm 0.58 in14.7 mm
12:45 PM 64.6°F18.1°C 64.3°F17.9°C 99% 2.3 mph ENE3.7 kmh ENE 2.3 mph3.7 kmh 31.86 in1078.9 mb - 0.20 in5.1 mm 0.62 in15.7 mm
12:50 PM 64.6°F18.1°C 64.3°F17.9°C 99% 1.2 mph ENE1.9 kmh ENE 1.2 mph1.9 kmh 31.86 in1078.9 mb - 0.25 in6.4 mm 0.67 in17.0 mm
01:10 PM 64.4°F18.0°C 64.1°F17.8°C 99% 1.2 mph ENE1.9 kmh ENE 2.3 mph3.7 kmh 31.86 in1078.9 mb - 0.26 in6.6 mm 0.67 in17.0 mm
01:15 PM 64.4°F18.0°C 64.1°F17.8°C 99% 2.3 mph E3.7 kmh E 2.3 mph3.7 kmh 31.86 in1078.9 mb - 0.28 in7.1 mm 0.69 in17.5 mm
01:20 PM 64.6°F18.1°C 64.3°F17.9°C 99% 1.2 mph ENE1.9 kmh ENE 2.3 mph3.7 kmh 31.86 in1078.9 mb - 0.28 in7.1 mm 0.69 in17.5 mm
01:25 PM 64.6°F18.1°C 64.3°F17.9°C 99% 2.3 mph E3.7 kmh E 2.3 mph3.7 kmh 31.86 in1078.9 mb - 0.29 in7.4 mm 0.70 in17.8 mm
01:30 PM 65.0°F18.3°C 64.7°F18.2°C 99% 2.3 mph NE3.7 kmh NE 2.3 mph3.7 kmh 31.86 in1078.9 mb - 0.31 in7.9 mm 0.72 in18.3 mm
01:35 PM 65.1°F18.4°C 64.8°F18.2°C 99% 2.3 mph NE3.7 kmh NE 2.3 mph3.7 kmh 31.86 in1078.9 mb - 0.32 in8.1 mm 0.73 in18.5 mm
01:40 PM 65.4°F18.6°C 65.1°F18.4°C 99% 2.3 mph E3.7 kmh E 3.5 mph5.6 kmh 31.86 in1078.9 mb - 0.31 in7.9 mm 0.73 in18.5 mm
01:45 PM 65.3°F18.5°C 65.0°F18.3°C 99% 2.3 mph NE3.7 kmh NE 4.6 mph7.4 kmh 31.86 in1078.9 mb - 0.30 in7.6 mm 0.73 in18.5 mm
01:50 PM 65.1°F18.4°C 64.8°F18.2°C 99% 3.5 mph NE5.6 kmh NE 4.6 mph7.4 kmh 31.86 in1078.9 mb - 0.21 in5.3 mm 0.73 in18.5 mm
01:55 PM 65.2°F18.4°C 64.9°F18.3°C 99% 2.3 mph ENE3.7 kmh ENE 2.3 mph3.7 kmh 31.86 in1078.9 mb - 0.15 in3.8 mm 0.73 in18.5 mm
02:00 PM 65.6°F18.7°C 65.3°F18.5°C 99% 2.3 mph NE3.7 kmh NE 2.3 mph3.7 kmh 31.86 in1078.9 mb - 0.11 in2.8 mm 0.73 in18.5 mm
02:10 PM 65.1°F18.4°C 64.8°F18.2°C 99% 2.3 mph E3.7 kmh E 2.3 mph3.7 kmh 31.86 in1078.9 mb - 0.06 in1.5 mm 0.73 in18.5 mm
02:15 PM 65.2°F18.4°C 64.9°F18.3°C 99% 1.2 mph NE1.9 kmh NE 2.3 mph3.7 kmh 31.86 in1078.9 mb - 0.04 in1.0 mm 0.73 in18.5 mm
02:20 PM 65.1°F18.4°C 64.8°F18.2°C 99% 1.2 mph E1.9 kmh E 1.2 mph1.9 kmh 31.86 in1078.9 mb - 0.05 in1.3 mm 0.74 in18.8 mm
02:25 PM 65.2°F18.4°C 64.9°F18.3°C 99% 2.3 mph E3.7 kmh E 2.3 mph3.7 kmh 31.86 in1078.9 mb - 0.04 in1.0 mm 0.74 in18.8 mm
02:30 PM 65.1°F18.4°C 64.8°F18.2°C 99% 2.3 mph NE3.7 kmh NE 4.6 mph7.4 kmh 31.86 in1078.9 mb - 0.03 in0.8 mm 0.74 in18.8 mm
02:35 PM 65.3°F18.5°C 65.0°F18.3°C 99% 1.2 mph ENE1.9 kmh ENE 2.3 mph3.7 kmh 31.86 in1078.9 mb - 0.01 in0.3 mm 0.74 in18.8 mm
02:40 PM 65.0°F18.3°C 64.7°F18.2°C 99% 2.3 mph E3.7 kmh E 2.3 mph3.7 kmh 31.86 in1078.9 mb - 0.02 in0.5 mm 0.75 in19.1 mm
02:45 PM 65.3°F18.5°C 65.0°F18.3°C 99% 2.3 mph ENE3.7 kmh ENE 2.3 mph3.7 kmh 31.86 in1078.9 mb - 0.03 in0.8 mm 0.76 in19.3 mm
02:50 PM 65.3°F18.5°C 65.0°F18.3°C 99% 2.3 mph E3.7 kmh E 4.6 mph7.4 kmh 31.86 in1078.9 mb - 0.04 in1.0 mm 0.77 in19.6 mm
02:55 PM 65.8°F18.8°C 65.5°F18.6°C 99% 2.3 mph ENE3.7 kmh ENE 2.3 mph3.7 kmh 31.86 in1078.9 mb - 0.04 in1.0 mm 0.77 in19.6 mm
03:00 PM 65.9°F18.8°C 65.6°F18.7°C 99% 2.3 mph ENE3.7 kmh ENE 3.5 mph5.6 kmh 31.86 in1078.9 mb - 0.04 in1.0 mm 0.77 in19.6 mm
03:10 PM 65.5°F18.6°C 65.2°F18.4°C 99% 2.3 mph ENE3.7 kmh ENE 2.3 mph3.7 kmh 31.86 in1078.9 mb - 0.04 in1.0 mm 0.77 in19.6 mm
03:15 PM 65.5°F18.6°C 65.2°F18.4°C 99% 2.3 mph E3.7 kmh E 4.6 mph7.4 kmh 31.86 in1078.9 mb - 0.04 in1.0 mm 0.77 in19.6 mm
03:20 PM 65.7°F18.7°C 65.4°F18.6°C 99% 3.5 mph NE5.6 kmh NE 4.6 mph7.4 kmh 31.86 in1078.9 mb - 0.03 in0.8 mm 0.77 in19.6 mm
03:25 PM 65.7°F18.7°C 65.4°F18.6°C 99% 3.5 mph NNE5.6 kmh NNE 4.6 mph7.4 kmh 31.86 in1078.9 mb - 0.03 in0.8 mm 0.77 in19.6 mm
03:30 PM 65.3°F18.5°C 65.0°F18.3°C 99% 2.3 mph ENE3.7 kmh ENE 2.3 mph3.7 kmh 31.86 in1078.9 mb - 0.03 in0.8 mm 0.77 in19.6 mm
03:35 PM 65.5°F18.6°C 65.2°F18.4°C 99% 2.3 mph ENE3.7 kmh ENE 2.3 mph3.7 kmh 31.86 in1078.9 mb - 0.04 in1.0 mm 0.78 in19.8 mm
03:40 PM 65.7°F18.7°C 65.4°F18.6°C 99% 2.3 mph NNE3.7 kmh NNE 3.5 mph5.6 kmh 31.86 in1078.9 mb - 0.04 in1.0 mm 0.79 in20.1 mm
03:45 PM 65.7°F18.7°C 65.4°F18.6°C 99% 2.3 mph E3.7 kmh E 2.3 mph3.7 kmh 31.86 in1078.9 mb - 0.04 in1.0 mm 0.79 in20.1 mm
03:50 PM 66.3°F19.1°C 66.0°F18.9°C 99% 1.2 mph NE1.9 kmh NE 4.6 mph7.4 kmh 31.86 in1078.9 mb - 0.02 in0.5 mm 0.79 in20.1 mm
03:55 PM 67.6°F19.8°C 67.3°F19.6°C 99% 2.3 mph NE3.7 kmh NE 4.6 mph7.4 kmh 31.86 in1078.9 mb - 0.02 in0.5 mm 0.79 in20.1 mm
04:00 PM 67.8°F19.9°C 67.5°F19.7°C 99% 3.5 mph NNE5.6 kmh NNE 6.9 mph11.1 kmh 31.86 in1078.9 mb - 0.02 in0.5 mm 0.79 in20.1 mm
04:10 PM 67.7°F19.8°C 67.4°F19.7°C 99% 2.3 mph NE3.7 kmh NE 5.8 mph9.3 kmh 31.86 in1078.9 mb - 0.02 in0.5 mm 0.79 in20.1 mm
04:15 PM 66.9°F19.4°C 66.6°F19.2°C 99% 2.3 mph NNE3.7 kmh NNE 3.5 mph5.6 kmh 31.86 in1078.9 mb - 0.02 in0.5 mm 0.79 in20.1 mm
04:20 PM 66.4°F19.1°C 66.1°F18.9°C 99% 2.3 mph NE3.7 kmh NE 2.3 mph3.7 kmh 31.86 in1078.9 mb - 0.02 in0.5 mm 0.79 in20.1 mm
04:25 PM 66.6°F19.2°C 66.3°F19.1°C 99% 2.3 mph NE3.7 kmh NE 4.6 mph7.4 kmh 31.86 in1078.9 mb - 0.02 in0.5 mm 0.79 in20.1 mm
04:30 PM 66.6°F19.2°C 66.3°F19.1°C 99% 2.3 mph ENE3.7 kmh ENE 1.2 mph1.9 kmh 31.86 in1078.9 mb - 0.02 in0.5 mm 0.79 in20.1 mm
04:35 PM 66.8°F19.3°C 66.6°F19.2°C 99% 1.2 mph NE1.9 kmh NE 2.3 mph3.7 kmh 31.86 in1078.9 mb - 0.01 in0.3 mm 0.79 in20.1 mm
04:40 PM 66.8°F19.3°C 66.2°F19.0°C 98% 3.5 mph NE5.6 kmh NE 4.6 mph7.4 kmh 31.86 in1078.9 mb - 0.01 in0.3 mm 0.79 in20.1 mm
04:45 PM 66.4°F19.1°C 66.2°F19.0°C 99% 2.3 mph NE3.7 kmh NE 2.3 mph3.7 kmh 31.86 in1078.9 mb - 0.00 in0.0 mm 0.79 in20.1 mm
04:50 PM 66.4°F19.1°C 66.2°F19.0°C 99% 1.2 mph ENE1.9 kmh ENE 2.3 mph3.7 kmh 31.86 in1078.9 mb - 0.00 in0.0 mm 0.79 in20.1 mm
04:55 PM 66.4°F19.1°C 66.1°F18.9°C 99% 1.2 mph ENE1.9 kmh ENE 4.6 mph7.4 kmh 31.86 in1078.9 mb - 0.00 in0.0 mm 0.79 in20.1 mm
05:00 PM 66.9°F19.4°C 66.6°F19.2°C 99% 3.5 mph N5.6 kmh N 3.5 mph5.6 kmh 31.86 in1078.9 mb - 0.00 in0.0 mm 0.79 in20.1 mm
05:10 PM 67.0°F19.4°C 66.4°F19.1°C 98% 2.3 mph NNE3.7 kmh NNE 4.6 mph7.4 kmh 31.86 in1078.9 mb - 0.00 in0.0 mm 0.79 in20.1 mm
05:15 PM 67.1°F19.5°C 65.9°F18.8°C 96% 3.5 mph ENE5.6 kmh ENE 5.8 mph9.3 kmh 31.86 in1078.9 mb - 0.00 in0.0 mm 0.79 in20.1 mm
05:20 PM 66.8°F19.3°C 65.6°F18.7°C 96% 3.5 mph NNE5.6 kmh NNE 4.6 mph7.4 kmh 31.86 in1078.9 mb - 0.00 in0.0 mm 0.79 in20.1 mm
05:25 PM 66.8°F19.3°C 65.6°F18.7°C 96% 2.3 mph NE3.7 kmh NE 3.5 mph5.6 kmh 31.86 in1078.9 mb - 0.00 in0.0 mm 0.79 in20.1 mm
05:30 PM 66.7°F19.3°C 65.8°F18.8°C 97% 1.2 mph ENE1.9 kmh ENE 1.2 mph1.9 kmh 31.86 in1078.9 mb - 0.00 in0.0 mm 0.79 in20.1 mm
05:35 PM 66.6°F19.2°C 66.0°F18.9°C 98% Calm Calm -- 31.86 in1078.9 mb - 0.00 in0.0 mm 0.79 in20.1 mm
05:40 PM 66.6°F19.2°C 66.0°F18.9°C 98% 1.2 mph ESE1.9 kmh ESE 1.2 mph1.9 kmh 31.86 in1078.9 mb - 0.00 in0.0 mm 0.79 in20.1 mm
05:45 PM 66.6°F19.2°C 66.0°F18.9°C 98% 1.2 mph ENE1.9 kmh ENE 2.3 mph3.7 kmh 31.86 in1078.9 mb - 0.00 in0.0 mm 0.79 in20.1 mm
05:50 PM 66.6°F19.2°C 66.0°F18.9°C 98% Calm Calm 2.3 mph3.7 kmh 31.86 in1078.9 mb - 0.00 in0.0 mm 0.79 in20.1 mm
05:55 PM 66.8°F19.3°C 66.2°F19.0°C 98% 2.3 mph NE3.7 kmh NE 2.3 mph3.7 kmh 31.86 in1078.9 mb - 0.00 in0.0 mm 0.79 in20.1 mm
06:00 PM 66.8°F19.3°C 66.2°F19.0°C 98% 2.3 mph NNE3.7 kmh NNE 2.3 mph3.7 kmh 31.86 in1078.9 mb - 0.00 in0.0 mm 0.79 in20.1 mm
06:10 PM 66.8°F19.3°C 65.9°F18.8°C 97% 4.6 mph N7.4 kmh N 5.8 mph9.3 kmh 31.86 in1078.9 mb - 0.00 in0.0 mm 0.79 in20.1 mm
06:15 PM 66.6°F19.2°C 66.0°F18.9°C 98% 5.8 mph N9.3 kmh N 5.8 mph9.3 kmh 31.86 in1078.9 mb - 0.00 in0.0 mm 0.79 in20.1 mm
06:20 PM 66.6°F19.2°C 66.0°F18.9°C 98% 4.6 mph N7.4 kmh N 5.8 mph9.3 kmh 31.86 in1078.9 mb - 0.00 in0.0 mm 0.79 in20.1 mm
06:25 PM 66.6°F19.2°C 66.0°F18.9°C 98% 4.6 mph N7.4 kmh N 5.8 mph9.3 kmh 31.86 in1078.9 mb - 0.00 in0.0 mm 0.79 in20.1 mm
06:30 PM 66.6°F19.2°C 66.3°F19.1°C 99% 3.5 mph N5.6 kmh N 4.6 mph7.4 kmh 31.86 in1078.9 mb - 0.00 in0.0 mm 0.79 in20.1 mm
06:35 PM 66.6°F19.2°C 66.3°F19.1°C 99% 3.5 mph NNE5.6 kmh NNE 3.5 mph5.6 kmh 31.86 in1078.9 mb - 0.00 in0.0 mm 0.79 in20.1 mm
06:40 PM 66.6°F19.2°C 66.3°F19.1°C 99% 1.2 mph NNW1.9 kmh NNW 2.3 mph3.7 kmh 31.86 in1078.9 mb - 0.00 in0.0 mm 0.79 in20.1 mm
06:45 PM 66.6°F19.2°C 66.0°F18.9°C 98% 1.2 mph NNE1.9 kmh NNE 2.3 mph3.7 kmh 31.86 in1078.9 mb - 0.00 in0.0 mm 0.79 in20.1 mm
06:50 PM 66.6°F19.2°C 66.0°F18.9°C 98% 1.2 mph E1.9 kmh E 1.2 mph1.9 kmh 31.86 in1078.9 mb - 0.00 in0.0 mm 0.79 in20.1 mm
06:55 PM 66.8°F19.3°C 66.2°F19.0°C 98% Calm Calm -- 31.86 in1078.9 mb - 0.00 in0.0 mm 0.79 in20.1 mm
07:00 PM 66.9°F19.4°C 66.3°F19.1°C 98% Calm Calm -- 31.86 in1078.9 mb - 0.00 in0.0 mm 0.79 in20.1 mm
07:10 PM 66.9°F19.4°C 66.3°F19.1°C 98% Calm Calm -- 31.86 in1078.9 mb - 0.00 in0.0 mm 0.79 in20.1 mm
07:15 PM 66.9°F19.4°C 66.3°F19.1°C 98% Calm Calm -- 31.86 in1078.9 mb - 0.00 in0.0 mm 0.79 in20.1 mm
07:20 PM 66.9°F19.4°C 66.6°F19.2°C 99% Calm Calm -- 31.86 in1078.9 mb - 0.00 in0.0 mm 0.79 in20.1 mm
07:25 PM 66.8°F19.3°C 66.5°F19.2°C 99% 1.2 mph NE1.9 kmh NE 1.2 mph1.9 kmh 31.86 in1078.9 mb - 0.00 in0.0 mm 0.79 in20.1 mm
07:30 PM 66.8°F19.3°C 66.5°F19.2°C 99% Calm Calm -- 31.86 in1078.9 mb - 0.00 in0.0 mm 0.79 in20.1 mm
07:35 PM 66.6°F19.2°C 66.3°F19.1°C 99% Calm Calm -- 31.86 in1078.9 mb - 0.00 in0.0 mm 0.79 in20.1 mm
07:40 PM 66.6°F19.2°C 66.3°F19.1°C 99% 1.2 mph NE1.9 kmh NE 1.2 mph1.9 kmh 31.86 in1078.9 mb - 0.00 in0.0 mm 0.79 in20.1 mm
07:45 PM 66.4°F19.1°C 66.1°F18.9°C 99% Calm Calm -- 31.86 in1078.9 mb - 0.00 in0.0 mm 0.79 in20.1 mm
07:50 PM 66.0°F18.9°C 65.7°F18.7°C 99% Calm Calm -- 31.86 in1078.9 mb - 0.00 in0.0 mm 0.79 in20.1 mm
07:55 PM 65.9°F18.8°C 65.6°F18.7°C 99% 1.2 mph NNE1.9 kmh NNE 2.3 mph3.7 kmh 31.86 in1078.9 mb - 0.00 in0.0 mm 0.79 in20.1 mm
08:00 PM 65.5°F18.6°C 65.3°F18.5°C 99% 1.2 mph N1.9 kmh N 1.2 mph1.9 kmh 31.86 in1078.9 mb - 0.00 in0.0 mm 0.79 in20.1 mm
08:10 PM 65.2°F18.4°C 64.9°F18.3°C 99% 1.2 mph NNE1.9 kmh NNE 1.2 mph1.9 kmh 31.86 in1078.9 mb - 0.00 in0.0 mm 0.79 in20.1 mm
08:15 PM 65.1°F18.4°C 64.8°F18.2°C 99% Calm Calm -- 31.86 in1078.9 mb - 0.00 in0.0 mm 0.79 in20.1 mm
08:20 PM 65.0°F18.3°C 64.7°F18.2°C 99% Calm Calm -- 31.86 in1078.9 mb - 0.00 in0.0 mm 0.79 in20.1 mm
08:25 PM 64.8°F18.2°C 64.5°F18.1°C 99% Calm Calm -- 31.86 in1078.9 mb - 0.00 in0.0 mm 0.79 in20.1 mm
08:30 PM 64.8°F18.2°C 64.5°F18.1°C 99% Calm Calm -- 31.86 in1078.9 mb - 0.00 in0.0 mm 0.79 in20.1 mm
08:35 PM 64.6°F18.1°C 64.3°F17.9°C 99% Calm Calm 1.2 mph1.9 kmh 31.86 in1078.9 mb - 0.00 in0.0 mm 0.79 in20.1 mm
08:40 PM 64.6°F18.1°C 64.3°F17.9°C 99% Calm Calm -- 31.86 in1078.9 mb - 0.00 in0.0 mm 0.79 in20.1 mm
08:45 PM 64.4°F18.0°C 64.1°F17.8°C 99% 1.2 mph SW1.9 kmh SW 1.2 mph1.9 kmh 31.86 in1078.9 mb - 0.00 in0.0 mm 0.79 in20.1 mm
08:50 PM 64.2°F17.9°C 63.9°F17.7°C 99% Calm Calm -- 31.86 in1078.9 mb - 0.00 in0.0 mm 0.79 in20.1 mm
08:55 PM 64.1°F17.8°C 63.8°F17.7°C 99% 1.2 mph N1.9 kmh N 1.2 mph1.9 kmh 31.86 in1078.9 mb - 0.00 in0.0 mm 0.79 in20.1 mm
09:00 PM 63.9°F17.7°C 63.6°F17.6°C 99% 2.3 mph NNE3.7 kmh NNE 2.3 mph3.7 kmh 31.86 in1078.9 mb - 0.00 in0.0 mm 0.79 in20.1 mm
09:10 PM 63.6°F17.6°C 63.3°F17.4°C 99% Calm Calm -- 31.86 in1078.9 mb - 0.00 in0.0 mm 0.79 in20.1 mm
09:15 PM 63.3°F17.4°C 63.0°F17.2°C 99% Calm Calm -- 31.86 in1078.9 mb - 0.00 in0.0 mm 0.79 in20.1 mm
09:20 PM 63.0°F17.2°C 62.7°F17.1°C 99% Calm Calm -- 31.86 in1078.9 mb - 0.00 in0.0 mm 0.79 in20.1 mm
09:25 PM 62.8°F17.1°C 62.5°F16.9°C 99% Calm Calm -- 31.86 in1078.9 mb - 0.00 in0.0 mm 0.79 in20.1 mm
09:30 PM 62.6°F17.0°C 62.3°F16.8°C 99% Calm Calm 1.2 mph1.9 kmh 31.86 in1078.9 mb - 0.00 in0.0 mm 0.79 in20.1 mm
09:35 PM 62.6°F17.0°C 62.3°F16.8°C 99% 2.3 mph N3.7 kmh N 2.3 mph3.7 kmh 31.86 in1078.9 mb - 0.00 in0.0 mm 0.79 in20.1 mm
09:40 PM 62.4°F16.9°C 62.1°F16.7°C 99% 2.3 mph N3.7 kmh N 2.3 mph3.7 kmh 31.86 in1078.9 mb - 0.00 in0.0 mm 0.79 in20.1 mm
09:45 PM 62.3°F16.8°C 62.0°F16.7°C 99% 2.3 mph N3.7 kmh N 2.3 mph3.7 kmh 31.86 in1078.9 mb - 0.00 in0.0 mm 0.79 in20.1 mm
09:50 PM 62.3°F16.8°C 62.0°F16.7°C 99% 2.3 mph N3.7 kmh N 2.3 mph3.7 kmh 31.86 in1078.9 mb - 0.00 in0.0 mm 0.79 in20.1 mm
09:55 PM 62.1°F16.7°C 61.8°F16.6°C 99% 2.3 mph N3.7 kmh N 2.3 mph3.7 kmh 31.86 in1078.9 mb - 0.00 in0.0 mm 0.79 in20.1 mm
10:00 PM 62.1°F16.7°C 61.8°F16.6°C 99% 2.3 mph N3.7 kmh N 2.3 mph3.7 kmh 31.86 in1078.9 mb - 0.00 in0.0 mm 0.79 in20.1 mm
10:10 PM 62.1°F16.7°C 61.8°F16.6°C 99% 2.3 mph N3.7 kmh N 2.3 mph3.7 kmh 31.86 in1078.9 mb - 0.00 in0.0 mm 0.79 in20.1 mm
10:15 PM 62.1°F16.7°C 61.8°F16.6°C 99% 3.5 mph N5.6 kmh N 3.5 mph5.6 kmh 31.86 in1078.9 mb - 0.00 in0.0 mm 0.79 in20.1 mm
10:20 PM 62.1°F16.7°C 61.8°F16.6°C 99% 2.3 mph N3.7 kmh N 2.3 mph3.7 kmh 31.86 in1078.9 mb - 0.00 in0.0 mm 0.79 in20.1 mm
10:25 PM 61.9°F16.6°C 61.6°F16.4°C 99% 1.2 mph N1.9 kmh N 1.2 mph1.9 kmh 31.86 in1078.9 mb - 0.00 in0.0 mm 0.79 in20.1 mm
10:30 PM 61.9°F16.6°C 61.6°F16.4°C 99% 2.3 mph N3.7 kmh N 1.2 mph1.9 kmh 31.86 in1078.9 mb - 0.00 in0.0 mm 0.79 in20.1 mm
10:35 PM 61.7°F16.5°C 61.4°F16.3°C 99% Calm Calm 1.2 mph1.9 kmh 31.86 in1078.9 mb - 0.00 in0.0 mm 0.79 in20.1 mm
10:40 PM 61.7°F16.5°C 61.4°F16.3°C 99% 2.3 mph NNE3.7 kmh NNE 2.3 mph3.7 kmh 31.86 in1078.9 mb - 0.00 in0.0 mm 0.79 in20.1 mm
10:45 PM 61.7°F16.5°C 61.4°F16.3°C 99% 2.3 mph NNE3.7 kmh NNE 2.3 mph3.7 kmh 31.86 in1078.9 mb - 0.00 in0.0 mm 0.79 in20.1 mm
10:50 PM 61.9°F16.6°C 61.6°F16.4°C 99% 2.3 mph NNE3.7 kmh NNE 2.3 mph3.7 kmh 31.86 in1078.9 mb - 0.00 in0.0 mm 0.79 in20.1 mm
10:55 PM 62.1°F16.7°C 61.8°F16.6°C 99% 1.2 mph NNE1.9 kmh NNE 1.2 mph1.9 kmh 31.86 in1078.9 mb - 0.00 in0.0 mm 0.79 in20.1 mm
11:00 PM 62.1°F16.7°C 61.8°F16.6°C 99% 1.2 mph N1.9 kmh N 2.3 mph3.7 kmh 31.86 in1078.9 mb - 0.00 in0.0 mm 9.16 in232.7 mm
11:10 PM 61.9°F16.6°C 61.6°F16.4°C 99% 2.3 mph NNE3.7 kmh NNE 3.5 mph5.6 kmh 31.86 in1078.9 mb - 0.00 in0.0 mm 9.16 in232.7 mm
11:15 PM 62.3°F16.8°C 62.0°F16.7°C 99% 2.3 mph NNE3.7 kmh NNE 3.5 mph5.6 kmh 31.86 in1078.9 mb - 0.00 in0.0 mm 9.16 in232.7 mm
11:20 PM 62.4°F16.9°C 62.1°F16.7°C 99% 3.5 mph NE5.6 kmh NE 3.5 mph5.6 kmh 31.86 in1078.9 mb - 0.00 in0.0 mm 9.16 in232.7 mm
11:25 PM 62.6°F17.0°C 62.3°F16.8°C 99% 4.6 mph N7.4 kmh N 4.6 mph7.4 kmh 31.86 in1078.9 mb - 0.00 in0.0 mm 9.16 in232.7 mm
11:30 PM 63.0°F17.2°C 62.7°F17.1°C 99% 4.6 mph N7.4 kmh N 4.6 mph7.4 kmh 31.86 in1078.9 mb - 0.00 in0.0 mm 9.16 in232.7 mm
11:35 PM 63.5°F17.5°C 63.2°F17.3°C 99% 4.6 mph N7.4 kmh N 4.6 mph7.4 kmh 31.86 in1078.9 mb - 0.00 in0.0 mm 9.16 in232.7 mm
11:40 PM 63.5°F17.5°C 63.2°F17.3°C 99% 4.6 mph NNE7.4 kmh NNE 4.6 mph7.4 kmh 31.86 in1078.9 mb - 0.00 in0.0 mm 9.16 in232.7 mm
11:45 PM 63.5°F17.5°C 63.2°F17.3°C 99% 3.5 mph N5.6 kmh N 4.6 mph7.4 kmh 31.86 in1078.9 mb - 0.00 in0.0 mm 9.16 in232.7 mm
11:50 PM 63.5°F17.5°C 63.2°F17.3°C 99% Calm Calm 1.2 mph1.9 kmh 31.86 in1078.9 mb - 0.00 in0.0 mm 9.16 in232.7 mm
11:55 PM 63.5°F17.5°C 63.2°F17.3°C 99% Calm Calm -- 31.86 in1078.9 mb - 0.00 in0.0 mm 9.16 in232.7 mm